Boultons Beach, New York
Current Conditions -  °F | °C
As of 10:56 PM on Saturday 22 Nov 2014 (Local Time) from KART Reporting Station
Light Rain Light Rain  
Wind Chill: 36°   Ceiling: 1200
Heat Index: 42°   Visibility: 3mi
Dew Point: 37°   Wind: 10mph
Humidity: 82%   Direction: 200°SSW
Pressure: 29.95"   Gusts: 20mph
Location:  43.9321°N, 76.0832°W
Report Text: KART 230356Z AUTO 20009G17KT 3SM -RA FEW008 OVC012 06/03 A2995 RMK AO2 RAB23 SLP147 P0000 T00560028
Loading
Personal Weather Stations






























Interactive Weather Map New forecast layout! Learn more

10-Day Weather Forecast

Advertisements
Track Severe Weather on mobile